Admire, Kansas
Current Conditions -  °F | °C
As of 12:53 PM on Sunday 21 Dec 2014 (Local Time) from KEMP Reporting Station
Overcast Overcast  
Wind Chill:   Ceiling: 900
Heat Index:   Visibility: 8mi
Dew Point:   Wind: 15mph
Humidity: 92%   Direction: 180°S
Pressure: 29.86"   Gusts: NA
Location:  38.64°N, 96.1°W
Report Text: KEMP 211853Z AUTO 18013KT 8SM OVC009 06/04 A2986 RMK AO2 SLP120 T00560044
Loading
Personal Weather Stations






























Interactive Weather Map New forecast layout! Learn more

10-Day Weather Forecast

Advertisements
Track Severe Weather on mobile